sensor_id;sensor_type;location;lat;lon;timestamp;P1;durP1;ratioP1;P2;durP2;ratioP2
64881;SDS011;51375;44.836;38.672;2024-03-17T00:00:22;22.85;;;4.43;;
64881;SDS011;51375;44.836;38.672;2024-03-17T00:02:49;22.90;;;5.22;;
64881;SDS011;51375;44.836;38.672;2024-03-17T00:05:15;26.83;;;4.57;;
64881;SDS011;51375;44.836;38.672;2024-03-17T00:07:44;28.55;;;5.13;;
64881;SDS011;51375;44.836;38.672;2024-03-17T00:10:10;30.00;;;4.95;;
64881;SDS011;51375;44.836;38.672;2024-03-17T00:12:36;29.52;;;4.90;;
64881;SDS011;51375;44.836;38.672;2024-03-17T00:15:03;16.17;;;5.00;;
64881;SDS011;51375;44.836;38.672;2024-03-17T00:17:30;23.33;;;5.30;;
64881;SDS011;51375;44.836;38.672;2024-03-17T00:19:56;27.10;;;5.30;;
64881;SDS011;51375;44.836;38.672;2024-03-17T00:22:22;22.80;;;5.43;;
64881;SDS011;51375;44.836;38.672;2024-03-17T00:24:48;30.45;;;5.53;;
64881;SDS011;51375;44.836;38.672;2024-03-17T00:27:14;23.13;;;5.15;;
64881;SDS011;51375;44.836;38.672;2024-03-17T00:29:40;26.02;;;5.15;;
64881;SDS011;51375;44.836;38.672;2024-03-17T00:32:06;25.17;;;4.90;;
64881;SDS011;51375;44.836;38.672;2024-03-17T00:34:32;31.35;;;4.80;;
64881;SDS011;51375;44.836;38.672;2024-03-17T00:36:58;21.42;;;5.05;;
64881;SDS011;51375;44.836;38.672;2024-03-17T00:39:28;23.08;;;5.13;;
64881;SDS011;51375;44.836;38.672;2024-03-17T00:41:54;28.48;;;4.82;;
64881;SDS011;51375;44.836;38.672;2024-03-17T00:44:20;31.42;;;6.53;;
64881;SDS011;51375;44.836;38.672;2024-03-17T00:46:46;26.50;;;5.35;;
64881;SDS011;51375;44.836;38.672;2024-03-17T00:49:14;31.80;;;5.72;;
64881;SDS011;51375;44.836;38.672;2024-03-17T00:51:40;32.22;;;4.47;;
64881;SDS011;51375;44.836;38.672;2024-03-17T00:54:06;26.50;;;6.07;;
64881;SDS011;51375;44.836;38.672;2024-03-17T00:56:32;21.42;;;4.80;;
64881;SDS011;51375;44.836;38.672;2024-03-17T00:58:58;27.08;;;5.57;;
64881;SDS011;51375;44.836;38.672;2024-03-17T01:01:23;18.50;;;5.75;;
64881;SDS011;51375;44.836;38.672;2024-03-17T01:03:50;30.25;;;5.55;;
64881;SDS011;51375;44.836;38.672;2024-03-17T01:06:16;30.88;;;6.05;;
64881;SDS011;51375;44.836;38.672;2024-03-17T01:08:42;24.25;;;4.97;;
64881;SDS011;51375;44.836;38.672;2024-03-17T01:11:13;33.17;;;5.18;;
64881;SDS011;51375;44.836;38.672;2024-03-17T01:13:40;35.97;;;6.05;;
64881;SDS011;51375;44.836;38.672;2024-03-17T01:16:07;30.25;;;6.05;;
64881;SDS011;51375;44.836;38.672;2024-03-17T01:18:33;26.40;;;4.97;;
64881;SDS011;51375;44.836;38.672;2024-03-17T01:21:00;31.33;;;5.68;;
64881;SDS011;51375;44.836;38.672;2024-03-17T01:23:26;39.28;;;6.35;;
64881;SDS011;51375;44.836;38.672;2024-03-17T01:25:53;26.52;;;5.97;;
64881;SDS011;51375;44.836;38.672;2024-03-17T01:28:19;17.05;;;5.35;;
64881;SDS011;51375;44.836;38.672;2024-03-17T01:30:45;21.50;;;5.90;;
64881;SDS011;51375;44.836;38.672;2024-03-17T01:33:12;27.23;;;5.55;;
64881;SDS011;51375;44.836;38.672;2024-03-17T01:35:38;33.90;;;5.63;;
64881;SDS011;51375;44.836;38.672;2024-03-17T01:38:04;36.20;;;5.60;;
64881;SDS011;51375;44.836;38.672;2024-03-17T01:40:30;33.33;;;5.60;;
64881;SDS011;51375;44.836;38.672;2024-03-17T01:42:56;31.15;;;5.47;;
64881;SDS011;51375;44.836;38.672;2024-03-17T01:45:29;30.65;;;5.97;;
64881;SDS011;51375;44.836;38.672;2024-03-17T01:47:57;35.08;;;6.90;;
64881;SDS011;51375;44.836;38.672;2024-03-17T01:50:25;28.35;;;7.05;;
64881;SDS011;51375;44.836;38.672;2024-03-17T01:52:56;31.88;;;5.53;;
64881;SDS011;51375;44.836;38.672;2024-03-17T01:55:25;37.88;;;6.57;;
64881;SDS011;51375;44.836;38.672;2024-03-17T01:57:53;37.25;;;5.85;;
64881;SDS011;51375;44.836;38.672;2024-03-17T02:00:19;26.08;;;6.80;;
64881;SDS011;51375;44.836;38.672;2024-03-17T02:02:45;42.13;;;7.05;;
64881;SDS011;51375;44.836;38.672;2024-03-17T02:05:11;34.92;;;6.47;;
64881;SDS011;51375;44.836;38.672;2024-03-17T02:07:37;36.03;;;6.47;;
64881;SDS011;51375;44.836;38.672;2024-03-17T02:10:03;33.80;;;6.65;;
64881;SDS011;51375;44.836;38.672;2024-03-17T02:12:30;32.13;;;6.38;;
64881;SDS011;51375;44.836;38.672;2024-03-17T02:14:57;29.45;;;6.28;;
64881;SDS011;51375;44.836;38.672;2024-03-17T02:17:24;35.90;;;6.57;;
64881;SDS011;51375;44.836;38.672;2024-03-17T02:19:51;24.30;;;6.50;;
64881;SDS011;51375;44.836;38.672;2024-03-17T02:22:17;40.60;;;7.00;;
64881;SDS011;51375;44.836;38.672;2024-03-17T02:24:43;40.45;;;7.63;;
64881;SDS011;51375;44.836;38.672;2024-03-17T02:27:10;43.13;;;6.85;;
64881;SDS011;51375;44.836;38.672;2024-03-17T02:29:36;43.55;;;7.40;;
64881;SDS011;51375;44.836;38.672;2024-03-17T02:32:02;41.95;;;7.45;;
64881;SDS011;51375;44.836;38.672;2024-03-17T02:34:35;41.67;;;7.47;;
64881;SDS011;51375;44.836;38.672;2024-03-17T02:37:05;47.95;;;7.22;;
64881;SDS011;51375;44.836;38.672;2024-03-17T02:39:32;42.92;;;7.07;;
64881;SDS011;51375;44.836;38.672;2024-03-17T02:42:03;32.75;;;6.80;;
64881;SDS011;51375;44.836;38.672;2024-03-17T02:44:33;37.17;;;6.80;;
64881;SDS011;51375;44.836;38.672;2024-03-17T02:47:00;28.85;;;6.45;;
64881;SDS011;51375;44.836;38.672;2024-03-17T02:49:29;42.85;;;8.15;;
64881;SDS011;51375;44.836;38.672;2024-03-17T02:52:04;40.28;;;7.55;;
64881;SDS011;51375;44.836;38.672;2024-03-17T02:54:30;34.35;;;6.40;;
64881;SDS011;51375;44.836;38.672;2024-03-17T02:56:57;41.92;;;7.07;;
64881;SDS011;51375;44.836;38.672;2024-03-17T02:59:23;29.00;;;6.75;;
64881;SDS011;51375;44.836;38.672;2024-03-17T03:01:49;36.78;;;7.93;;
64881;SDS011;51375;44.836;38.672;2024-03-17T03:04:15;30.38;;;6.65;;
64881;SDS011;51375;44.836;38.672;2024-03-17T03:06:41;32.08;;;6.43;;
64881;SDS011;51375;44.836;38.672;2024-03-17T03:09:07;37.20;;;6.57;;
64881;SDS011;51375;44.836;38.672;2024-03-17T03:11:39;23.42;;;5.22;;
64881;SDS011;51375;44.836;38.672;2024-03-17T03:14:06;30.98;;;6.85;;
64881;SDS011;51375;44.836;38.672;2024-03-17T03:16:32;36.42;;;6.82;;
64881;SDS011;51375;44.836;38.672;2024-03-17T03:18:59;38.13;;;7.30;;
64881;SDS011;51375;44.836;38.672;2024-03-17T03:21:25;34.33;;;6.70;;
64881;SDS011;51375;44.836;38.672;2024-03-17T03:23:51;42.60;;;7.30;;
64881;SDS011;51375;44.836;38.672;2024-03-17T03:26:17;37.92;;;7.47;;
64881;SDS011;51375;44.836;38.672;2024-03-17T03:28:43;43.50;;;7.80;;
64881;SDS011;51375;44.836;38.672;2024-03-17T03:31:12;33.75;;;7.40;;
64881;SDS011;51375;44.836;38.672;2024-03-17T03:33:42;44.63;;;9.10;;
64881;SDS011;51375;44.836;38.672;2024-03-17T03:36:12;39.45;;;9.38;;
64881;SDS011;51375;44.836;38.672;2024-03-17T03:38:39;39.10;;;8.65;;
64881;SDS011;51375;44.836;38.672;2024-03-17T03:41:06;52.30;;;10.32;;
64881;SDS011;51375;44.836;38.672;2024-03-17T03:43:33;39.47;;;8.00;;
64881;SDS011;51375;44.836;38.672;2024-03-17T03:45:59;29.08;;;7.82;;
64881;SDS011;51375;44.836;38.672;2024-03-17T03:48:26;31.45;;;8.38;;
64881;SDS011;51375;44.836;38.672;2024-03-17T03:50:52;34.28;;;7.45;;
64881;SDS011;51375;44.836;38.672;2024-03-17T03:53:19;24.73;;;7.28;;
64881;SDS011;51375;44.836;38.672;2024-03-17T03:55:46;42.45;;;8.95;;
64881;SDS011;51375;44.836;38.672;2024-03-17T03:58:12;42.67;;;8.85;;
64881;SDS011;51375;44.836;38.672;2024-03-17T04:00:38;41.78;;;8.32;;
64881;SDS011;51375;44.836;38.672;2024-03-17T04:03:04;32.10;;;8.90;;
64881;SDS011;51375;44.836;38.672;2024-03-17T04:05:31;32.60;;;8.40;;
64881;SDS011;51375;44.836;38.672;2024-03-17T04:07:57;41.67;;;10.10;;
64881;SDS011;51375;44.836;38.672;2024-03-17T04:10:23;25.08;;;8.50;;
64881;SDS011;51375;44.836;38.672;2024-03-17T04:12:50;33.78;;;8.50;;
64881;SDS011;51375;44.836;38.672;2024-03-17T04:15:17;29.58;;;7.68;;
64881;SDS011;51375;44.836;38.672;2024-03-17T04:17:43;28.08;;;7.43;;
64881;SDS011;51375;44.836;38.672;2024-03-17T04:20:09;28.42;;;8.20;;
64881;SDS011;51375;44.836;38.672;2024-03-17T04:22:39;31.27;;;7.53;;
64881;SDS011;51375;44.836;38.672;2024-03-17T04:25:11;36.08;;;10.00;;
64881;SDS011;51375;44.836;38.672;2024-03-17T04:27:38;38.03;;;10.88;;
64881;SDS011;51375;44.836;38.672;2024-03-17T04:30:04;43.90;;;10.20;;
64881;SDS011;51375;44.836;38.672;2024-03-17T04:32:32;44.25;;;10.43;;
64881;SDS011;51375;44.836;38.672;2024-03-17T04:34:59;47.15;;;10.48;;
64881;SDS011;51375;44.836;38.672;2024-03-17T04:37:25;34.17;;;9.50;;
64881;SDS011;51375;44.836;38.672;2024-03-17T04:39:51;33.00;;;7.47;;
64881;SDS011;51375;44.836;38.672;2024-03-17T04:42:17;38.10;;;8.38;;
64881;SDS011;51375;44.836;38.672;2024-03-17T04:44:44;24.42;;;7.55;;
64881;SDS011;51375;44.836;38.672;2024-03-17T04:47:11;34.30;;;8.02;;
64881;SDS011;51375;44.836;38.672;2024-03-17T04:49:41;33.05;;;7.68;;
64881;SDS011;51375;44.836;38.672;2024-03-17T04:52:11;40.60;;;8.40;;
64881;SDS011;51375;44.836;38.672;2024-03-17T04:54:38;31.40;;;7.93;;
64881;SDS011;51375;44.836;38.672;2024-03-17T04:57:07;33.92;;;7.20;;
64881;SDS011;51375;44.836;38.672;2024-03-17T04:59:33;38.38;;;8.15;;
64881;SDS011;51375;44.836;38.672;2024-03-17T05:02:00;36.88;;;7.97;;
64881;SDS011;51375;44.836;38.672;2024-03-17T05:04:27;28.90;;;6.68;;
64881;SDS011;51375;44.836;38.672;2024-03-17T05:06:54;32.03;;;6.85;;
64881;SDS011;51375;44.836;38.672;2024-03-17T05:09:20;41.50;;;6.75;;
64881;SDS011;51375;44.836;38.672;2024-03-17T05:11:46;34.95;;;6.88;;
64881;SDS011;51375;44.836;38.672;2024-03-17T05:14:15;37.38;;;7.70;;
64881;SDS011;51375;44.836;38.672;2024-03-17T05:16:41;29.90;;;6.82;;
64881;SDS011;51375;44.836;38.672;2024-03-17T05:19:07;25.42;;;5.85;;
64881;SDS011;51375;44.836;38.672;2024-03-17T05:21:34;34.45;;;6.60;;
64881;SDS011;51375;44.836;38.672;2024-03-17T05:24:03;35.97;;;6.00;;
64881;SDS011;51375;44.836;38.672;2024-03-17T05:26:29;31.65;;;7.97;;
64881;SDS011;51375;44.836;38.672;2024-03-17T05:28:56;28.00;;;6.75;;
64881;SDS011;51375;44.836;38.672;2024-03-17T05:31:23;39.53;;;9.32;;
64881;SDS011;51375;44.836;38.672;2024-03-17T05:33:49;32.70;;;7.38;;
64881;SDS011;51375;44.836;38.672;2024-03-17T05:36:15;20.23;;;4.35;;
64881;SDS011;51375;44.836;38.672;2024-03-17T05:38:41;38.08;;;6.13;;
64881;SDS011;51375;44.836;38.672;2024-03-17T05:41:08;27.60;;;5.28;;
64881;SDS011;51375;44.836;38.672;2024-03-17T05:43:35;42.80;;;7.60;;
64881;SDS011;51375;44.836;38.672;2024-03-17T05:46:04;39.63;;;8.25;;
64881;SDS011;51375;44.836;38.672;2024-03-17T05:48:38;43.25;;;8.65;;
64881;SDS011;51375;44.836;38.672;2024-03-17T05:51:05;55.45;;;9.20;;
64881;SDS011;51375;44.836;38.672;2024-03-17T05:53:32;36.65;;;7.55;;
64881;SDS011;51375;44.836;38.672;2024-03-17T05:55:59;47.95;;;8.05;;
64881;SDS011;51375;44.836;38.672;2024-03-17T05:58:26;41.05;;;7.68;;
64881;SDS011;51375;44.836;38.672;2024-03-17T06:00:52;39.33;;;7.22;;
64881;SDS011;51375;44.836;38.672;2024-03-17T06:03:18;35.85;;;7.25;;
64881;SDS011;51375;44.836;38.672;2024-03-17T06:05:45;50.33;;;8.48;;
64881;SDS011;51375;44.836;38.672;2024-03-17T06:08:11;34.72;;;8.05;;
64881;SDS011;51375;44.836;38.672;2024-03-17T06:10:41;36.22;;;8.13;;
64881;SDS011;51375;44.836;38.672;2024-03-17T06:13:08;40.50;;;10.10;;
64881;SDS011;51375;44.836;38.672;2024-03-17T06:15:38;34.00;;;8.38;;
64881;SDS011;51375;44.836;38.672;2024-03-17T06:18:05;42.47;;;8.13;;
64881;SDS011;51375;44.836;38.672;2024-03-17T06:20:34;41.72;;;8.43;;
64881;SDS011;51375;44.836;38.672;2024-03-17T06:23:00;32.05;;;7.28;;
64881;SDS011;51375;44.836;38.672;2024-03-17T06:25:26;40.13;;;7.93;;
64881;SDS011;51375;44.836;38.672;2024-03-17T06:27:53;40.33;;;9.35;;
64881;SDS011;51375;44.836;38.672;2024-03-17T06:30:22;36.30;;;7.88;;
64881;SDS011;51375;44.836;38.672;2024-03-17T06:32:48;34.55;;;7.82;;
64881;SDS011;51375;44.836;38.672;2024-03-17T06:35:14;48.80;;;9.65;;
64881;SDS011;51375;44.836;38.672;2024-03-17T06:37:50;38.55;;;9.35;;
64881;SDS011;51375;44.836;38.672;2024-03-17T06:40:17;34.88;;;8.32;;
64881;SDS011;51375;44.836;38.672;2024-03-17T06:42:44;36.47;;;8.20;;
64881;SDS011;51375;44.836;38.672;2024-03-17T06:45:10;33.97;;;8.98;;
64881;SDS011;51375;44.836;38.672;2024-03-17T06:47:36;51.10;;;9.50;;
64881;SDS011;51375;44.836;38.672;2024-03-17T06:50:04;40.38;;;8.52;;
64881;SDS011;51375;44.836;38.672;2024-03-17T06:52:30;40.55;;;7.28;;
64881;SDS011;51375;44.836;38.672;2024-03-17T06:54:56;43.13;;;9.45;;
64881;SDS011;51375;44.836;38.672;2024-03-17T06:57:26;41.63;;;8.48;;
64881;SDS011;51375;44.836;38.672;2024-03-17T06:59:52;43.15;;;9.07;;
64881;SDS011;51375;44.836;38.672;2024-03-17T07:02:18;66.15;;;10.15;;
64881;SDS011;51375;44.836;38.672;2024-03-17T07:04:45;43.67;;;7.95;;
64881;SDS011;51375;44.836;38.672;2024-03-17T07:07:13;38.10;;;9.18;;
64881;SDS011;51375;44.836;38.672;2024-03-17T07:09:42;36.67;;;8.82;;
64881;SDS011;51375;44.836;38.672;2024-03-17T07:12:08;36.55;;;7.97;;
64881;SDS011;51375;44.836;38.672;2024-03-17T07:14:36;40.15;;;8.52;;
64881;SDS011;51375;44.836;38.672;2024-03-17T07:17:02;39.97;;;9.07;;
64881;SDS011;51375;44.836;38.672;2024-03-17T07:19:29;38.05;;;8.65;;
64881;SDS011;51375;44.836;38.672;2024-03-17T07:21:56;40.65;;;8.80;;
64881;SDS011;51375;44.836;38.672;2024-03-17T07:24:24;57.15;;;9.70;;
64881;SDS011;51375;44.836;38.672;2024-03-17T07:26:50;47.65;;;9.75;;
64881;SDS011;51375;44.836;38.672;2024-03-17T07:29:16;26.92;;;7.90;;
64881;SDS011;51375;44.836;38.672;2024-03-17T07:31:44;44.80;;;7.25;;
64881;SDS011;51375;44.836;38.672;2024-03-17T07:34:10;53.55;;;9.15;;
64881;SDS011;51375;44.836;38.672;2024-03-17T07:36:36;58.70;;;10.98;;
64881;SDS011;51375;44.836;38.672;2024-03-17T07:39:02;35.50;;;6.65;;
64881;SDS011;51375;44.836;38.672;2024-03-17T07:41:28;46.42;;;8.25;;
64881;SDS011;51375;44.836;38.672;2024-03-17T07:43:54;35.55;;;7.05;;
64881;SDS011;51375;44.836;38.672;2024-03-17T07:46:21;42.15;;;8.15;;
64881;SDS011;51375;44.836;38.672;2024-03-17T07:48:47;28.58;;;6.90;;
64881;SDS011;51375;44.836;38.672;2024-03-17T07:51:14;47.67;;;7.93;;
64881;SDS011;51375;44.836;38.672;2024-03-17T07:53:45;32.90;;;6.60;;
64881;SDS011;51375;44.836;38.672;2024-03-17T07:56:13;34.10;;;6.40;;
64881;SDS011;51375;44.836;38.672;2024-03-17T07:58:42;27.58;;;6.82;;
64881;SDS011;51375;44.836;38.672;2024-03-17T08:01:10;43.78;;;7.20;;
64881;SDS011;51375;44.836;38.672;2024-03-17T08:03:38;33.13;;;6.38;;
64881;SDS011;51375;44.836;38.672;2024-03-17T08:06:05;33.78;;;6.20;;
64881;SDS011;51375;44.836;38.672;2024-03-17T08:08:32;36.05;;;6.95;;
64881;SDS011;51375;44.836;38.672;2024-03-17T08:10:59;39.00;;;7.10;;
64881;SDS011;51375;44.836;38.672;2024-03-17T08:13:29;46.90;;;8.15;;
64881;SDS011;51375;44.836;38.672;2024-03-17T08:16:00;40.38;;;6.70;;
64881;SDS011;51375;44.836;38.672;2024-03-17T08:18:27;31.35;;;6.80;;
64881;SDS011;51375;44.836;38.672;2024-03-17T08:20:54;43.70;;;7.13;;
64881;SDS011;51375;44.836;38.672;2024-03-17T08:23:20;25.98;;;4.90;;
64881;SDS011;51375;44.836;38.672;2024-03-17T08:25:52;29.85;;;5.65;;
64881;SDS011;51375;44.836;38.672;2024-03-17T08:28:19;30.65;;;5.35;;
64881;SDS011;51375;44.836;38.672;2024-03-17T08:30:52;27.60;;;5.63;;
64881;SDS011;51375;44.836;38.672;2024-03-17T08:33:25;31.23;;;5.40;;
64881;SDS011;51375;44.836;38.672;2024-03-17T08:36:13;24.05;;;5.18;;
64881;SDS011;51375;44.836;38.672;2024-03-17T08:38:42;25.92;;;5.03;;
64881;SDS011;51375;44.836;38.672;2024-03-17T08:41:08;35.80;;;5.50;;
64881;SDS011;51375;44.836;38.672;2024-03-17T08:43:35;29.45;;;5.35;;
64881;SDS011;51375;44.836;38.672;2024-03-17T08:48:35;32.15;;;5.82;;
64881;SDS011;51375;44.836;38.672;2024-03-17T08:51:05;22.38;;;4.85;;
64881;SDS011;51375;44.836;38.672;2024-03-17T08:53:32;30.33;;;4.70;;
64881;SDS011;51375;44.836;38.672;2024-03-17T08:56:00;27.67;;;4.97;;
64881;SDS011;51375;44.836;38.672;2024-03-17T08:58:28;36.33;;;4.80;;
64881;SDS011;51375;44.836;38.672;2024-03-17T09:00:54;26.98;;;4.47;;
64881;SDS011;51375;44.836;38.672;2024-03-17T09:03:21;31.10;;;5.50;;
64881;SDS011;51375;44.836;38.672;2024-03-17T09:05:47;24.23;;;5.70;;
64881;SDS011;51375;44.836;38.672;2024-03-17T09:08:16;23.63;;;5.05;;
64881;SDS011;51375;44.836;38.672;2024-03-17T09:10:44;23.83;;;4.82;;
64881;SDS011;51375;44.836;38.672;2024-03-17T09:13:13;33.47;;;5.47;;
64881;SDS011;51375;44.836;38.672;2024-03-17T09:15:56;21.48;;;4.60;;
64881;SDS011;51375;44.836;38.672;2024-03-17T09:18:26;27.23;;;5.05;;
64881;SDS011;51375;44.836;38.672;2024-03-17T09:20:59;16.67;;;4.70;;
64881;SDS011;51375;44.836;38.672;2024-03-17T09:23:28;12.35;;;3.67;;
64881;SDS011;51375;44.836;38.672;2024-03-17T09:26:00;23.30;;;4.80;;
64881;SDS011;51375;44.836;38.672;2024-03-17T09:28:30;26.20;;;4.60;;
64881;SDS011;51375;44.836;38.672;2024-03-17T09:30:56;17.17;;;4.30;;
64881;SDS011;51375;44.836;38.672;2024-03-17T09:33:26;14.60;;;4.93;;
64881;SDS011;51375;44.836;38.672;2024-03-17T09:35:57;20.95;;;4.95;;
64881;SDS011;51375;44.836;38.672;2024-03-17T09:38:34;19.42;;;4.60;;
64881;SDS011;51375;44.836;38.672;2024-03-17T09:41:01;29.33;;;5.57;;
64881;SDS011;51375;44.836;38.672;2024-03-17T09:43:27;27.55;;;4.97;;
64881;SDS011;51375;44.836;38.672;2024-03-17T09:45:54;26.67;;;5.90;;
64881;SDS011;51375;44.836;38.672;2024-03-17T09:48:27;25.75;;;4.90;;
64881;SDS011;51375;44.836;38.672;2024-03-17T09:50:57;19.50;;;5.13;;
64881;SDS011;51375;44.836;38.672;2024-03-17T09:53:30;25.02;;;4.70;;
64881;SDS011;51375;44.836;38.672;2024-03-17T09:55:59;25.90;;;5.03;;
64881;SDS011;51375;44.836;38.672;2024-03-17T09:58:35;22.08;;;4.90;;
64881;SDS011;51375;44.836;38.672;2024-03-17T10:01:01;26.42;;;5.20;;
64881;SDS011;51375;44.836;38.672;2024-03-17T10:06:13;22.67;;;4.70;;
64881;SDS011;51375;44.836;38.672;2024-03-17T10:08:44;25.85;;;4.68;;
64881;SDS011;51375;44.836;38.672;2024-03-17T10:11:12;31.88;;;5.75;;
64881;SDS011;51375;44.836;38.672;2024-03-17T10:13:41;32.42;;;4.53;;
64881;SDS011;51375;44.836;38.672;2024-03-17T10:16:17;27.63;;;4.97;;
64881;SDS011;51375;44.836;38.672;2024-03-17T10:18:50;27.23;;;4.95;;
64881;SDS011;51375;44.836;38.672;2024-03-17T10:21:37;21.90;;;4.75;;
64881;SDS011;51375;44.836;38.672;2024-03-17T10:24:14;36.25;;;5.00;;
64881;SDS011;51375;44.836;38.672;2024-03-17T10:31:51;25.08;;;4.75;;
64881;SDS011;51375;44.836;38.672;2024-03-17T10:34:19;28.60;;;5.72;;
64881;SDS011;51375;44.836;38.672;2024-03-17T10:36:46;16.13;;;4.25;;
64881;SDS011;51375;44.836;38.672;2024-03-17T10:39:25;22.77;;;4.82;;
64881;SDS011;51375;44.836;38.672;2024-03-17T10:41:56;27.95;;;5.15;;
64881;SDS011;51375;44.836;38.672;2024-03-17T10:48:12;32.20;;;4.72;;
64881;SDS011;51375;44.836;38.672;2024-03-17T10:50:44;18.97;;;4.40;;
64881;SDS011;51375;44.836;38.672;2024-03-17T10:53:14;27.13;;;4.78;;
64881;SDS011;51375;44.836;38.672;2024-03-17T10:55:51;15.60;;;4.25;;
64881;SDS011;51375;44.836;38.672;2024-03-17T11:01:14;32.05;;;4.97;;
64881;SDS011;51375;44.836;38.672;2024-03-17T11:03:40;28.90;;;5.00;;
64881;SDS011;51375;44.836;38.672;2024-03-17T11:06:08;21.20;;;4.13;;
64881;SDS011;51375;44.836;38.672;2024-03-17T11:08:36;31.27;;;4.68;;
64881;SDS011;51375;44.836;38.672;2024-03-17T11:11:03;26.50;;;4.78;;
64881;SDS011;51375;44.836;38.672;2024-03-17T11:13:30;28.60;;;4.72;;
64881;SDS011;51375;44.836;38.672;2024-03-17T11:15:57;25.90;;;4.68;;
64881;SDS011;51375;44.836;38.672;2024-03-17T11:20:57;23.30;;;5.03;;
64881;SDS011;51375;44.836;38.672;2024-03-17T11:23:37;21.40;;;4.05;;
64881;SDS011;51375;44.836;38.672;2024-03-17T11:26:06;18.77;;;5.00;;
64881;SDS011;51375;44.836;38.672;2024-03-17T11:33:57;23.95;;;4.82;;
64881;SDS011;51375;44.836;38.672;2024-03-17T11:47:02;16.17;;;3.95;;
64881;SDS011;51375;44.836;38.672;2024-03-17T11:49:39;15.88;;;4.30;;
64881;SDS011;51375;44.836;38.672;2024-03-17T11:52:09;7.57;;;3.40;;
64881;SDS011;51375;44.836;38.672;2024-03-17T11:54:38;7.75;;;3.00;;
64881;SDS011;51375;44.836;38.672;2024-03-17T11:57:12;5.55;;;2.15;;
64881;SDS011;51375;44.836;38.672;2024-03-17T11:59:40;4.30;;;2.60;;
64881;SDS011;51375;44.836;38.672;2024-03-17T12:02:26;7.28;;;2.70;;
64881;SDS011;51375;44.836;38.672;2024-03-17T12:04:58;7.30;;;2.25;;
64881;SDS011;51375;44.836;38.672;2024-03-17T12:07:25;2.80;;;1.83;;
64881;SDS011;51375;44.836;38.672;2024-03-17T12:09:53;5.25;;;2.90;;
64881;SDS011;51375;44.836;38.672;2024-03-17T12:12:21;9.25;;;3.28;;
64881;SDS011;51375;44.836;38.672;2024-03-17T12:15:00;8.25;;;3.88;;
64881;SDS011;51375;44.836;38.672;2024-03-17T12:17:26;6.80;;;3.53;;
64881;SDS011;51375;44.836;38.672;2024-03-17T12:19:53;6.00;;;3.60;;
64881;SDS011;51375;44.836;38.672;2024-03-17T12:22:23;4.15;;;2.30;;
64881;SDS011;51375;44.836;38.672;2024-03-17T12:24:53;8.18;;;2.67;;
64881;SDS011;51375;44.836;38.672;2024-03-17T12:27:20;10.10;;;2.40;;
64881;SDS011;51375;44.836;38.672;2024-03-17T12:29:51;5.78;;;2.90;;
64881;SDS011;51375;44.836;38.672;2024-03-17T12:32:18;6.22;;;2.45;;
64881;SDS011;51375;44.836;38.672;2024-03-17T12:34:52;8.18;;;2.90;;
64881;SDS011;51375;44.836;38.672;2024-03-17T12:37:20;5.72;;;2.50;;
64881;SDS011;51375;44.836;38.672;2024-03-17T12:39:52;10.27;;;4.30;;
64881;SDS011;51375;44.836;38.672;2024-03-17T12:42:23;5.88;;;2.95;;
64881;SDS011;51375;44.836;38.672;2024-03-17T12:44:50;10.93;;;2.95;;
64881;SDS011;51375;44.836;38.672;2024-03-17T12:47:21;7.50;;;2.72;;
64881;SDS011;51375;44.836;38.672;2024-03-17T12:49:49;4.35;;;2.22;;
64881;SDS011;51375;44.836;38.672;2024-03-17T12:52:19;6.93;;;3.30;;
64881;SDS011;51375;44.836;38.672;2024-03-17T12:55:02;7.07;;;2.83;;
64881;SDS011;51375;44.836;38.672;2024-03-17T12:57:47;6.80;;;3.15;;
64881;SDS011;51375;44.836;38.672;2024-03-17T13:00:33;5.00;;;2.60;;
64881;SDS011;51375;44.836;38.672;2024-03-17T13:03:03;7.38;;;2.50;;
64881;SDS011;51375;44.836;38.672;2024-03-17T13:05:35;7.05;;;3.13;;
64881;SDS011;51375;44.836;38.672;2024-03-17T13:08:02;6.45;;;2.80;;
64881;SDS011;51375;44.836;38.672;2024-03-17T13:10:29;9.00;;;3.88;;
64881;SDS011;51375;44.836;38.672;2024-03-17T13:15:33;6.18;;;3.05;;
64881;SDS011;51375;44.836;38.672;2024-03-17T13:18:02;4.65;;;2.70;;
64881;SDS011;51375;44.836;38.672;2024-03-17T13:20:30;6.50;;;2.92;;
64881;SDS011;51375;44.836;38.672;2024-03-17T13:23:00;5.72;;;2.40;;
64881;SDS011;51375;44.836;38.672;2024-03-17T13:25:27;4.65;;;2.60;;
64881;SDS011;51375;44.836;38.672;2024-03-17T13:28:05;5.57;;;2.83;;
64881;SDS011;51375;44.836;38.672;2024-03-17T13:30:32;3.35;;;2.35;;
64881;SDS011;51375;44.836;38.672;2024-03-17T13:33:02;5.57;;;3.05;;
64881;SDS011;51375;44.836;38.672;2024-03-17T13:35:34;12.25;;;3.83;;
64881;SDS011;51375;44.836;38.672;2024-03-17T13:38:07;6.78;;;3.70;;
64881;SDS011;51375;44.836;38.672;2024-03-17T13:40:36;5.95;;;2.90;;
64881;SDS011;51375;44.836;38.672;2024-03-17T13:43:04;9.60;;;2.70;;
64881;SDS011;51375;44.836;38.672;2024-03-17T13:45:40;6.75;;;2.47;;
64881;SDS011;51375;44.836;38.672;2024-03-17T13:48:08;3.92;;;2.60;;
64881;SDS011;51375;44.836;38.672;2024-03-17T13:50:37;7.50;;;2.70;;
64881;SDS011;51375;44.836;38.672;2024-03-17T13:53:04;5.53;;;2.60;;
64881;SDS011;51375;44.836;38.672;2024-03-17T13:55:30;5.82;;;2.88;;
64881;SDS011;51375;44.836;38.672;2024-03-17T13:57:56;7.35;;;2.95;;
64881;SDS011;51375;44.836;38.672;2024-03-17T14:00:27;7.00;;;3.58;;
64881;SDS011;51375;44.836;38.672;2024-03-17T14:02:55;4.43;;;2.38;;
64881;SDS011;51375;44.836;38.672;2024-03-17T14:05:22;4.60;;;2.70;;
64881;SDS011;51375;44.836;38.672;2024-03-17T14:07:49;8.55;;;2.80;;
64881;SDS011;51375;44.836;38.672;2024-03-17T14:10:18;6.00;;;2.60;;
64881;SDS011;51375;44.836;38.672;2024-03-17T14:12:44;4.40;;;2.33;;
64881;SDS011;51375;44.836;38.672;2024-03-17T14:15:12;4.65;;;2.25;;
64881;SDS011;51375;44.836;38.672;2024-03-17T14:17:39;4.82;;;2.83;;
64881;SDS011;51375;44.836;38.672;2024-03-17T14:20:12;3.75;;;2.42;;
64881;SDS011;51375;44.836;38.672;2024-03-17T14:22:40;4.90;;;2.60;;
64881;SDS011;51375;44.836;38.672;2024-03-17T14:25:08;4.63;;;2.47;;
64881;SDS011;51375;44.836;38.672;2024-03-17T14:27:44;3.60;;;2.40;;
64881;SDS011;51375;44.836;38.672;2024-03-17T14:30:11;4.65;;;2.70;;
64881;SDS011;51375;44.836;38.672;2024-03-17T14:32:41;8.18;;;2.80;;
64881;SDS011;51375;44.836;38.672;2024-03-17T14:35:09;4.72;;;2.80;;
64881;SDS011;51375;44.836;38.672;2024-03-17T14:37:38;7.65;;;3.30;;
64881;SDS011;51375;44.836;38.672;2024-03-17T14:40:06;5.97;;;2.97;;
64881;SDS011;51375;44.836;38.672;2024-03-17T14:42:40;7.47;;;3.10;;
64881;SDS011;51375;44.836;38.672;2024-03-17T14:45:07;7.97;;;3.13;;
64881;SDS011;51375;44.836;38.672;2024-03-17T14:47:33;10.32;;;3.15;;
64881;SDS011;51375;44.836;38.672;2024-03-17T14:49:59;6.63;;;3.20;;
64881;SDS011;51375;44.836;38.672;2024-03-17T14:52:25;11.63;;;3.78;;
64881;SDS011;51375;44.836;38.672;2024-03-17T14:54:51;8.15;;;4.32;;
64881;SDS011;51375;44.836;38.672;2024-03-17T14:57:19;11.48;;;4.55;;
64881;SDS011;51375;44.836;38.672;2024-03-17T14:59:46;10.18;;;4.20;;
64881;SDS011;51375;44.836;38.672;2024-03-17T15:02:12;8.40;;;4.20;;
64881;SDS011;51375;44.836;38.672;2024-03-17T15:04:38;7.22;;;3.80;;
64881;SDS011;51375;44.836;38.672;2024-03-17T15:07:04;9.48;;;3.95;;